Прогноз погоды TAF Белгород

СКИДКИ НА СМАРТФОНЫ!

Прогноз погоды TAF: 
TAF UUOB 071059Z 0712/0721 12007MPS 9999 BKN016 TEMPO 0712/0718 -SN BKN007
Аэропорт подробнее: 
Регион: 

Скидки на навигаторы!